sensor_id;sensor_type;location;lat;lon;timestamp;P1;durP1;ratioP1;P2;durP2;ratioP2
49416;SDS011;35290;39.550;8.786;2023-04-30T00:03:20;25.88;;;8.90;;
49416;SDS011;35290;39.550;8.786;2023-04-30T00:05:48;28.25;;;9.25;;
49416;SDS011;35290;39.550;8.786;2023-04-30T00:08:15;30.63;;;10.23;;
49416;SDS011;35290;39.550;8.786;2023-04-30T00:10:40;30.52;;;9.32;;
49416;SDS011;35290;39.550;8.786;2023-04-30T00:13:06;25.98;;;9.20;;
49416;SDS011;35290;39.550;8.786;2023-04-30T00:15:32;31.25;;;13.57;;
49416;SDS011;35290;39.550;8.786;2023-04-30T00:17:58;30.63;;;10.25;;
49416;SDS011;35290;39.550;8.786;2023-04-30T00:20:24;27.00;;;9.60;;
49416;SDS011;35290;39.550;8.786;2023-04-30T00:22:50;31.55;;;9.60;;
49416;SDS011;35290;39.550;8.786;2023-04-30T00:25:17;29.02;;;9.43;;
49416;SDS011;35290;39.550;8.786;2023-04-30T00:27:45;28.20;;;10.05;;
49416;SDS011;35290;39.550;8.786;2023-04-30T00:33:14;39.08;;;11.18;;
49416;SDS011;35290;39.550;8.786;2023-04-30T00:35:40;32.53;;;10.45;;
49416;SDS011;35290;39.550;8.786;2023-04-30T00:38:05;31.20;;;11.40;;
49416;SDS011;35290;39.550;8.786;2023-04-30T00:43:34;27.88;;;9.75;;
49416;SDS011;35290;39.550;8.786;2023-04-30T00:46:00;34.03;;;10.45;;
49416;SDS011;35290;39.550;8.786;2023-04-30T00:51:31;26.65;;;10.25;;
49416;SDS011;35290;39.550;8.786;2023-04-30T00:54:01;41.17;;;16.00;;
49416;SDS011;35290;39.550;8.786;2023-04-30T00:56:30;39.78;;;14.73;;
49416;SDS011;35290;39.550;8.786;2023-04-30T01:01:58;34.28;;;11.43;;
49416;SDS011;35290;39.550;8.786;2023-04-30T01:04:25;34.70;;;10.95;;
49416;SDS011;35290;39.550;8.786;2023-04-30T01:06:51;33.58;;;9.52;;
49416;SDS011;35290;39.550;8.786;2023-04-30T01:12:25;32.33;;;10.15;;
49416;SDS011;35290;39.550;8.786;2023-04-30T01:17:22;28.80;;;9.13;;
49416;SDS011;35290;39.550;8.786;2023-04-30T01:22:56;31.52;;;8.98;;
49416;SDS011;35290;39.550;8.786;2023-04-30T01:25:32;26.33;;;8.20;;
49416;SDS011;35290;39.550;8.786;2023-04-30T01:30:29;24.48;;;7.50;;
49416;SDS011;35290;39.550;8.786;2023-04-30T01:32:56;28.58;;;8.40;;
49416;SDS011;35290;39.550;8.786;2023-04-30T01:35:23;23.38;;;8.30;;
49416;SDS011;35290;39.550;8.786;2023-04-30T01:40:28;26.90;;;8.77;;
49416;SDS011;35290;39.550;8.786;2023-04-30T01:48:17;27.90;;;7.72;;
49416;SDS011;35290;39.550;8.786;2023-04-30T01:50:50;25.45;;;8.02;;
49416;SDS011;35290;39.550;8.786;2023-04-30T01:53:23;25.92;;;8.02;;
49416;SDS011;35290;39.550;8.786;2023-04-30T01:55:55;28.33;;;8.40;;
49416;SDS011;35290;39.550;8.786;2023-04-30T01:58:22;25.48;;;7.75;;
49416;SDS011;35290;39.550;8.786;2023-04-30T02:00:49;22.45;;;8.27;;
49416;SDS011;35290;39.550;8.786;2023-04-30T02:03:15;25.95;;;8.40;;
49416;SDS011;35290;39.550;8.786;2023-04-30T02:05:41;29.20;;;8.40;;
49416;SDS011;35290;39.550;8.786;2023-04-30T02:08:07;29.23;;;7.80;;
49416;SDS011;35290;39.550;8.786;2023-04-30T02:10:33;23.73;;;7.90;;
49416;SDS011;35290;39.550;8.786;2023-04-30T02:12:59;30.17;;;8.20;;
49416;SDS011;35290;39.550;8.786;2023-04-30T02:15:24;23.67;;;7.55;;
49416;SDS011;35290;39.550;8.786;2023-04-30T02:17:51;26.33;;;7.80;;
49416;SDS011;35290;39.550;8.786;2023-04-30T02:23:20;27.48;;;8.00;;
49416;SDS011;35290;39.550;8.786;2023-04-30T02:25:46;23.23;;;8.23;;
49416;SDS011;35290;39.550;8.786;2023-04-30T02:28:12;25.45;;;8.30;;
49416;SDS011;35290;39.550;8.786;2023-04-30T02:33:40;18.70;;;6.93;;
49416;SDS011;35290;39.550;8.786;2023-04-30T02:39:09;20.25;;;7.15;;
49416;SDS011;35290;39.550;8.786;2023-04-30T02:41:35;24.35;;;7.45;;
49416;SDS011;35290;39.550;8.786;2023-04-30T02:44:01;19.90;;;6.43;;
49416;SDS011;35290;39.550;8.786;2023-04-30T02:46:27;18.35;;;6.65;;
49416;SDS011;35290;39.550;8.786;2023-04-30T02:48:53;17.33;;;6.63;;
49416;SDS011;35290;39.550;8.786;2023-04-30T02:51:18;18.88;;;7.25;;
49416;SDS011;35290;39.550;8.786;2023-04-30T02:53:44;29.65;;;7.00;;
49416;SDS011;35290;39.550;8.786;2023-04-30T02:56:10;19.70;;;7.10;;
49416;SDS011;35290;39.550;8.786;2023-04-30T02:58:36;25.95;;;8.07;;
49416;SDS011;35290;39.550;8.786;2023-04-30T03:01:02;24.38;;;7.10;;
49416;SDS011;35290;39.550;8.786;2023-04-30T03:03:28;24.85;;;7.75;;
49416;SDS011;35290;39.550;8.786;2023-04-30T03:05:54;29.75;;;7.88;;
49416;SDS011;35290;39.550;8.786;2023-04-30T03:08:21;24.42;;;7.93;;
49416;SDS011;35290;39.550;8.786;2023-04-30T03:10:46;29.63;;;8.50;;
49416;SDS011;35290;39.550;8.786;2023-04-30T03:13:12;29.20;;;9.57;;
49416;SDS011;35290;39.550;8.786;2023-04-30T03:15:39;24.70;;;8.38;;
49416;SDS011;35290;39.550;8.786;2023-04-30T03:18:05;26.67;;;7.95;;
49416;SDS011;35290;39.550;8.786;2023-04-30T03:20:30;32.00;;;8.90;;
49416;SDS011;35290;39.550;8.786;2023-04-30T03:22:56;26.05;;;8.82;;
49416;SDS011;35290;39.550;8.786;2023-04-30T03:25:21;28.98;;;8.45;;
49416;SDS011;35290;39.550;8.786;2023-04-30T03:27:47;27.67;;;8.98;;
49416;SDS011;35290;39.550;8.786;2023-04-30T03:33:16;36.35;;;9.00;;
49416;SDS011;35290;39.550;8.786;2023-04-30T03:35:42;31.23;;;8.65;;
49416;SDS011;35290;39.550;8.786;2023-04-30T03:38:09;38.22;;;8.45;;
49416;SDS011;35290;39.550;8.786;2023-04-30T03:43:38;34.63;;;9.00;;
49416;SDS011;35290;39.550;8.786;2023-04-30T03:46:04;40.30;;;9.55;;
49416;SDS011;35290;39.550;8.786;2023-04-30T03:51:32;41.50;;;9.98;;
49416;SDS011;35290;39.550;8.786;2023-04-30T03:54:06;43.10;;;10.38;;
49416;SDS011;35290;39.550;8.786;2023-04-30T03:56:33;36.10;;;9.35;;
49416;SDS011;35290;39.550;8.786;2023-04-30T04:02:01;37.53;;;10.30;;
49416;SDS011;35290;39.550;8.786;2023-04-30T04:04:27;33.83;;;9.52;;
49416;SDS011;35290;39.550;8.786;2023-04-30T04:06:53;37.00;;;9.65;;
49416;SDS011;35290;39.550;8.786;2023-04-30T04:12:22;34.55;;;9.57;;
49416;SDS011;35290;39.550;8.786;2023-04-30T04:14:47;39.42;;;10.32;;
49416;SDS011;35290;39.550;8.786;2023-04-30T04:17:13;37.63;;;9.23;;
49416;SDS011;35290;39.550;8.786;2023-04-30T04:19:39;42.88;;;9.95;;
49416;SDS011;35290;39.550;8.786;2023-04-30T04:22:05;36.53;;;9.45;;
49416;SDS011;35290;39.550;8.786;2023-04-30T04:24:30;34.83;;;9.02;;
49416;SDS011;35290;39.550;8.786;2023-04-30T04:26:57;44.13;;;10.73;;
49416;SDS011;35290;39.550;8.786;2023-04-30T04:34:51;38.85;;;8.50;;
49416;SDS011;35290;39.550;8.786;2023-04-30T04:37:18;38.90;;;8.93;;
49416;SDS011;35290;39.550;8.786;2023-04-30T04:42:48;30.05;;;9.48;;
49416;SDS011;35290;39.550;8.786;2023-04-30T04:45:16;30.83;;;8.32;;
49416;SDS011;35290;39.550;8.786;2023-04-30T04:47:42;37.75;;;9.90;;
49416;SDS011;35290;39.550;8.786;2023-04-30T04:53:10;34.63;;;9.35;;
49416;SDS011;35290;39.550;8.786;2023-04-30T04:55:36;40.03;;;10.85;;
49416;SDS011;35290;39.550;8.786;2023-04-30T04:58:03;43.25;;;9.85;;
49416;SDS011;35290;39.550;8.786;2023-04-30T05:03:32;34.10;;;8.85;;
49416;SDS011;35290;39.550;8.786;2023-04-30T05:05:58;26.15;;;8.27;;
49416;SDS011;35290;39.550;8.786;2023-04-30T05:08:24;36.47;;;8.68;;
49416;SDS011;35290;39.550;8.786;2023-04-30T05:10:49;30.65;;;8.23;;
49416;SDS011;35290;39.550;8.786;2023-04-30T05:13:16;30.45;;;9.00;;
49416;SDS011;35290;39.550;8.786;2023-04-30T05:15:41;35.50;;;8.80;;
49416;SDS011;35290;39.550;8.786;2023-04-30T05:18:07;38.88;;;8.98;;
49416;SDS011;35290;39.550;8.786;2023-04-30T05:20:33;31.45;;;9.05;;
49416;SDS011;35290;39.550;8.786;2023-04-30T05:22:59;31.02;;;8.57;;
49416;SDS011;35290;39.550;8.786;2023-04-30T05:25:25;28.40;;;8.15;;
49416;SDS011;35290;39.550;8.786;2023-04-30T05:27:51;31.08;;;7.88;;
49416;SDS011;35290;39.550;8.786;2023-04-30T05:38:48;29.38;;;9.10;;
49416;SDS011;35290;39.550;8.786;2023-04-30T05:41:14;32.67;;;9.30;;
49416;SDS011;35290;39.550;8.786;2023-04-30T05:43:40;29.33;;;9.52;;
49416;SDS011;35290;39.550;8.786;2023-04-30T05:46:06;29.00;;;8.80;;
49416;SDS011;35290;39.550;8.786;2023-04-30T05:48:32;31.30;;;8.93;;
49416;SDS011;35290;39.550;8.786;2023-04-30T05:50:58;27.77;;;8.75;;
49416;SDS011;35290;39.550;8.786;2023-04-30T05:53:24;31.65;;;9.32;;
49416;SDS011;35290;39.550;8.786;2023-04-30T05:55:50;25.55;;;7.78;;
49416;SDS011;35290;39.550;8.786;2023-04-30T05:58:15;27.92;;;8.13;;
49416;SDS011;35290;39.550;8.786;2023-04-30T06:03:45;30.63;;;7.97;;
49416;SDS011;35290;39.550;8.786;2023-04-30T06:06:11;32.45;;;8.27;;
49416;SDS011;35290;39.550;8.786;2023-04-30T06:08:36;31.33;;;8.25;;
49416;SDS011;35290;39.550;8.786;2023-04-30T06:11:02;31.35;;;8.63;;
49416;SDS011;35290;39.550;8.786;2023-04-30T06:13:30;24.65;;;7.75;;
49416;SDS011;35290;39.550;8.786;2023-04-30T06:15:56;29.15;;;8.27;;
49416;SDS011;35290;39.550;8.786;2023-04-30T06:18:22;29.75;;;8.63;;
49416;SDS011;35290;39.550;8.786;2023-04-30T06:20:49;26.33;;;7.95;;
49416;SDS011;35290;39.550;8.786;2023-04-30T06:23:15;27.05;;;8.75;;
49416;SDS011;35290;39.550;8.786;2023-04-30T06:25:40;33.83;;;9.30;;
49416;SDS011;35290;39.550;8.786;2023-04-30T06:28:06;28.48;;;8.35;;
49416;SDS011;35290;39.550;8.786;2023-04-30T06:30:35;29.95;;;8.60;;
49416;SDS011;35290;39.550;8.786;2023-04-30T06:33:00;21.33;;;8.35;;
49416;SDS011;35290;39.550;8.786;2023-04-30T06:35:26;30.83;;;10.25;;
49416;SDS011;35290;39.550;8.786;2023-04-30T06:37:52;29.23;;;9.95;;
49416;SDS011;35290;39.550;8.786;2023-04-30T06:43:21;26.05;;;9.23;;
49416;SDS011;35290;39.550;8.786;2023-04-30T06:45:47;30.95;;;9.48;;
49416;SDS011;35290;39.550;8.786;2023-04-30T06:48:13;26.95;;;9.20;;
49416;SDS011;35290;39.550;8.786;2023-04-30T06:53:41;24.25;;;9.43;;
49416;SDS011;35290;39.550;8.786;2023-04-30T06:56:07;22.40;;;9.48;;
49416;SDS011;35290;39.550;8.786;2023-04-30T07:02:01;25.35;;;9.07;;
49416;SDS011;35290;39.550;8.786;2023-04-30T07:04:27;24.52;;;9.10;;
49416;SDS011;35290;39.550;8.786;2023-04-30T07:06:53;25.65;;;8.88;;
49416;SDS011;35290;39.550;8.786;2023-04-30T07:09:19;20.80;;;9.50;;
49416;SDS011;35290;39.550;8.786;2023-04-30T07:11:46;27.15;;;9.70;;
49416;SDS011;35290;39.550;8.786;2023-04-30T07:14:12;25.95;;;9.50;;
49416;SDS011;35290;39.550;8.786;2023-04-30T07:16:40;26.40;;;9.52;;
49416;SDS011;35290;39.550;8.786;2023-04-30T07:22:09;29.48;;;9.85;;
49416;SDS011;35290;39.550;8.786;2023-04-30T07:24:34;31.70;;;9.80;;
49416;SDS011;35290;39.550;8.786;2023-04-30T07:27:01;22.40;;;8.95;;
49416;SDS011;35290;39.550;8.786;2023-04-30T07:32:31;27.50;;;10.48;;
49416;SDS011;35290;39.550;8.786;2023-04-30T07:34:58;28.85;;;9.43;;
49416;SDS011;35290;39.550;8.786;2023-04-30T07:37:23;24.63;;;8.88;;
49416;SDS011;35290;39.550;8.786;2023-04-30T07:42:53;28.23;;;8.85;;
49416;SDS011;35290;39.550;8.786;2023-04-30T07:45:19;26.02;;;10.10;;
49416;SDS011;35290;39.550;8.786;2023-04-30T07:47:45;30.20;;;10.23;;
49416;SDS011;35290;39.550;8.786;2023-04-30T07:53:14;45.90;;;24.23;;
49416;SDS011;35290;39.550;8.786;2023-04-30T07:55:40;59.70;;;29.30;;
49416;SDS011;35290;39.550;8.786;2023-04-30T07:58:06;77.28;;;35.92;;
49416;SDS011;35290;39.550;8.786;2023-04-30T08:00:32;89.82;;;37.67;;
49416;SDS011;35290;39.550;8.786;2023-04-30T08:02:58;177.50;;;78.85;;
49416;SDS011;35290;39.550;8.786;2023-04-30T08:05:25;173.40;;;74.85;;
49416;SDS011;35290;39.550;8.786;2023-04-30T08:07:51;152.80;;;62.55;;
49416;SDS011;35290;39.550;8.786;2023-04-30T08:10:17;94.15;;;39.60;;
49416;SDS011;35290;39.550;8.786;2023-04-30T08:12:44;68.65;;;30.52;;
49416;SDS011;35290;39.550;8.786;2023-04-30T08:15:09;61.08;;;26.15;;
49416;SDS011;35290;39.550;8.786;2023-04-30T08:17:36;48.25;;;20.42;;
49416;SDS011;35290;39.550;8.786;2023-04-30T08:23:04;41.72;;;18.38;;
49416;SDS011;35290;39.550;8.786;2023-04-30T08:25:31;40.95;;;18.10;;
49416;SDS011;35290;39.550;8.786;2023-04-30T08:27:58;38.15;;;17.67;;
49416;SDS011;35290;39.550;8.786;2023-04-30T08:33:27;33.08;;;17.42;;
49416;SDS011;35290;39.550;8.786;2023-04-30T08:35:53;33.05;;;16.63;;
49416;SDS011;35290;39.550;8.786;2023-04-30T08:38:19;39.92;;;17.70;;
49416;SDS011;35290;39.550;8.786;2023-04-30T08:43:49;35.25;;;17.65;;
49416;SDS011;35290;39.550;8.786;2023-04-30T08:46:19;27.60;;;17.13;;
49416;SDS011;35290;39.550;8.786;2023-04-30T08:51:50;36.83;;;18.92;;
49416;SDS011;35290;39.550;8.786;2023-04-30T08:54:16;30.02;;;18.15;;
49416;SDS011;35290;39.550;8.786;2023-04-30T08:56:44;33.50;;;17.42;;
49416;SDS011;35290;39.550;8.786;2023-04-30T09:02:13;36.85;;;19.60;;
49416;SDS011;35290;39.550;8.786;2023-04-30T09:04:39;32.50;;;16.77;;
49416;SDS011;35290;39.550;8.786;2023-04-30T09:07:05;27.75;;;15.73;;
49416;SDS011;35290;39.550;8.786;2023-04-30T09:09:37;28.75;;;15.05;;
49416;SDS011;35290;39.550;8.786;2023-04-30T09:12:12;29.02;;;15.15;;
49416;SDS011;35290;39.550;8.786;2023-04-30T09:14:39;34.70;;;16.27;;
49416;SDS011;35290;39.550;8.786;2023-04-30T09:17:05;31.63;;;15.98;;
49416;SDS011;35290;39.550;8.786;2023-04-30T09:22:36;28.23;;;16.85;;
49416;SDS011;35290;39.550;8.786;2023-04-30T09:25:02;33.35;;;16.98;;
49416;SDS011;35290;39.550;8.786;2023-04-30T09:27:27;31.13;;;16.45;;
49416;SDS011;35290;39.550;8.786;2023-04-30T09:29:53;34.20;;;17.27;;
49416;SDS011;35290;39.550;8.786;2023-04-30T09:32:19;32.15;;;17.48;;
49416;SDS011;35290;39.550;8.786;2023-04-30T09:34:45;33.55;;;17.67;;
49416;SDS011;35290;39.550;8.786;2023-04-30T09:37:11;33.83;;;15.95;;
49416;SDS011;35290;39.550;8.786;2023-04-30T09:39:46;38.55;;;16.20;;
49416;SDS011;35290;39.550;8.786;2023-04-30T09:42:13;30.77;;;15.35;;
49416;SDS011;35290;39.550;8.786;2023-04-30T09:44:39;31.45;;;15.52;;
49416;SDS011;35290;39.550;8.786;2023-04-30T09:49:39;37.67;;;18.02;;
49416;SDS011;35290;39.550;8.786;2023-04-30T09:52:06;33.80;;;17.20;;
49416;SDS011;35290;39.550;8.786;2023-04-30T09:54:33;30.25;;;14.70;;
49416;SDS011;35290;39.550;8.786;2023-04-30T09:57:00;33.60;;;14.90;;
49416;SDS011;35290;39.550;8.786;2023-04-30T10:02:29;29.23;;;13.73;;
49416;SDS011;35290;39.550;8.786;2023-04-30T10:04:55;31.27;;;13.90;;
49416;SDS011;35290;39.550;8.786;2023-04-30T10:07:23;28.65;;;13.38;;
49416;SDS011;35290;39.550;8.786;2023-04-30T10:12:53;25.92;;;12.90;;
49416;SDS011;35290;39.550;8.786;2023-04-30T10:15:24;33.13;;;14.02;;
49416;SDS011;35290;39.550;8.786;2023-04-30T10:17:53;28.90;;;13.77;;
49416;SDS011;35290;39.550;8.786;2023-04-30T10:20:20;27.55;;;13.77;;
49416;SDS011;35290;39.550;8.786;2023-04-30T10:22:47;25.48;;;13.38;;
49416;SDS011;35290;39.550;8.786;2023-04-30T10:25:13;28.30;;;14.45;;
49416;SDS011;35290;39.550;8.786;2023-04-30T10:27:40;31.45;;;14.95;;
49416;SDS011;35290;39.550;8.786;2023-04-30T10:38:23;23.65;;;12.63;;
49416;SDS011;35290;39.550;8.786;2023-04-30T10:40:50;26.17;;;14.38;;
49416;SDS011;35290;39.550;8.786;2023-04-30T10:43:20;30.98;;;14.35;;
49416;SDS011;35290;39.550;8.786;2023-04-30T10:45:48;23.88;;;11.95;;
49416;SDS011;35290;39.550;8.786;2023-04-30T10:48:14;25.67;;;12.60;;
49416;SDS011;35290;39.550;8.786;2023-04-30T10:50:44;28.38;;;12.38;;
49416;SDS011;35290;39.550;8.786;2023-04-30T10:53:13;22.98;;;11.95;;
49416;SDS011;35290;39.550;8.786;2023-04-30T10:56:01;54.20;;;25.60;;
49416;SDS011;35290;39.550;8.786;2023-04-30T10:58:38;75.13;;;37.63;;
49416;SDS011;35290;39.550;8.786;2023-04-30T11:01:06;46.72;;;24.02;;
49416;SDS011;35290;39.550;8.786;2023-04-30T11:03:35;34.50;;;17.85;;
49416;SDS011;35290;39.550;8.786;2023-04-30T11:06:11;27.38;;;13.20;;
49416;SDS011;35290;39.550;8.786;2023-04-30T11:08:38;24.73;;;11.90;;
49416;SDS011;35290;39.550;8.786;2023-04-30T11:11:06;25.38;;;12.25;;
49416;SDS011;35290;39.550;8.786;2023-04-30T11:13:57;26.50;;;12.43;;
49416;SDS011;35290;39.550;8.786;2023-04-30T11:16:33;25.75;;;13.73;;
49416;SDS011;35290;39.550;8.786;2023-04-30T11:19:09;23.55;;;13.57;;
49416;SDS011;35290;39.550;8.786;2023-04-30T11:22:21;30.15;;;14.68;;
49416;SDS011;35290;39.550;8.786;2023-04-30T11:24:21;31.25;;;15.10;;
49416;SDS011;35290;39.550;8.786;2023-04-30T11:27:02;31.02;;;16.52;;
49416;SDS011;35290;39.550;8.786;2023-04-30T11:29:29;26.13;;;15.43;;
49416;SDS011;35290;39.550;8.786;2023-04-30T11:31:59;26.27;;;16.40;;
49416;SDS011;35290;39.550;8.786;2023-04-30T11:34:25;33.35;;;17.05;;
49416;SDS011;35290;39.550;8.786;2023-04-30T11:36:52;26.25;;;16.88;;
49416;SDS011;35290;39.550;8.786;2023-04-30T11:39:19;26.40;;;14.32;;
49416;SDS011;35290;39.550;8.786;2023-04-30T11:41:46;25.25;;;13.73;;
49416;SDS011;35290;39.550;8.786;2023-04-30T11:44:21;26.45;;;13.38;;
49416;SDS011;35290;39.550;8.786;2023-04-30T11:46:47;22.65;;;11.50;;
49416;SDS011;35290;39.550;8.786;2023-04-30T11:49:13;26.30;;;11.55;;
49416;SDS011;35290;39.550;8.786;2023-04-30T11:51:39;23.83;;;11.00;;
49416;SDS011;35290;39.550;8.786;2023-04-30T11:54:06;21.85;;;9.90;;
49416;SDS011;35290;39.550;8.786;2023-04-30T11:56:36;21.10;;;8.85;;
49416;SDS011;35290;39.550;8.786;2023-04-30T12:02:05;19.80;;;7.90;;
49416;SDS011;35290;39.550;8.786;2023-04-30T12:04:32;16.85;;;6.80;;
49416;SDS011;35290;39.550;8.786;2023-04-30T12:07:00;19.25;;;6.95;;
49416;SDS011;35290;39.550;8.786;2023-04-30T12:12:30;22.05;;;6.32;;
49416;SDS011;35290;39.550;8.786;2023-04-30T12:14:55;18.10;;;6.28;;
49416;SDS011;35290;39.550;8.786;2023-04-30T12:17:32;15.15;;;5.40;;
49416;SDS011;35290;39.550;8.786;2023-04-30T12:19:58;16.30;;;5.95;;
49416;SDS011;35290;39.550;8.786;2023-04-30T12:22:24;12.35;;;4.90;;
49416;SDS011;35290;39.550;8.786;2023-04-30T12:24:50;17.05;;;6.25;;
49416;SDS011;35290;39.550;8.786;2023-04-30T12:27:16;16.63;;;6.28;;
49416;SDS011;35290;39.550;8.786;2023-04-30T12:32:47;15.90;;;5.72;;
49416;SDS011;35290;39.550;8.786;2023-04-30T12:35:15;18.05;;;5.93;;
49416;SDS011;35290;39.550;8.786;2023-04-30T12:37:44;22.42;;;6.30;;
49416;SDS011;35290;39.550;8.786;2023-04-30T12:43:14;11.50;;;4.35;;
49416;SDS011;35290;39.550;8.786;2023-04-30T12:45:47;13.43;;;4.38;;
49416;SDS011;35290;39.550;8.786;2023-04-30T12:48:15;11.68;;;4.50;;
49416;SDS011;35290;39.550;8.786;2023-04-30T12:50:46;13.20;;;5.10;;
49416;SDS011;35290;39.550;8.786;2023-04-30T12:53:12;14.68;;;4.20;;
49416;SDS011;35290;39.550;8.786;2023-04-30T12:55:38;12.00;;;4.00;;
49416;SDS011;35290;39.550;8.786;2023-04-30T12:58:11;10.85;;;4.20;;
49416;SDS011;35290;39.550;8.786;2023-04-30T13:03:10;15.60;;;5.25;;
49416;SDS011;35290;39.550;8.786;2023-04-30T13:05:37;13.05;;;4.20;;
49416;SDS011;35290;39.550;8.786;2023-04-30T13:08:03;11.90;;;4.32;;
49416;SDS011;35290;39.550;8.786;2023-04-30T13:13:36;13.60;;;5.13;;
49416;SDS011;35290;39.550;8.786;2023-04-30T13:16:02;9.35;;;4.43;;
49416;SDS011;35290;39.550;8.786;2023-04-30T13:18:31;14.10;;;4.93;;
49416;SDS011;35290;39.550;8.786;2023-04-30T13:23:59;10.30;;;4.43;;
49416;SDS011;35290;39.550;8.786;2023-04-30T13:26:26;12.40;;;4.88;;
49416;SDS011;35290;39.550;8.786;2023-04-30T13:28:52;11.77;;;4.30;;
49416;SDS011;35290;39.550;8.786;2023-04-30T13:31:18;9.45;;;4.32;;
49416;SDS011;35290;39.550;8.786;2023-04-30T13:33:44;12.15;;;4.65;;
49416;SDS011;35290;39.550;8.786;2023-04-30T13:36:10;7.43;;;3.88;;
49416;SDS011;35290;39.550;8.786;2023-04-30T13:38:36;10.60;;;4.70;;
49416;SDS011;35290;39.550;8.786;2023-04-30T13:44:06;10.13;;;4.38;;
49416;SDS011;35290;39.550;8.786;2023-04-30T13:46:32;7.90;;;4.15;;
49416;SDS011;35290;39.550;8.786;2023-04-30T13:48:58;8.20;;;4.05;;
49416;SDS011;35290;39.550;8.786;2023-04-30T13:51:23;10.43;;;4.28;;
49416;SDS011;35290;39.550;8.786;2023-04-30T13:53:49;8.18;;;4.57;;
49416;SDS011;35290;39.550;8.786;2023-04-30T13:56:15;9.55;;;4.35;;
49416;SDS011;35290;39.550;8.786;2023-04-30T13:58:41;10.50;;;4.28;;
49416;SDS011;35290;39.550;8.786;2023-04-30T14:04:10;10.55;;;4.00;;
49416;SDS011;35290;39.550;8.786;2023-04-30T14:06:36;11.52;;;4.10;;
49416;SDS011;35290;39.550;8.786;2023-04-30T14:12:06;13.52;;;4.45;;
49416;SDS011;35290;39.550;8.786;2023-04-30T14:14:31;13.15;;;3.75;;
49416;SDS011;35290;39.550;8.786;2023-04-30T14:16:57;12.20;;;4.47;;
49416;SDS011;35290;39.550;8.786;2023-04-30T14:22:26;11.88;;;3.88;;
49416;SDS011;35290;39.550;8.786;2023-04-30T14:24:52;10.05;;;4.32;;
49416;SDS011;35290;39.550;8.786;2023-04-30T14:27:17;12.43;;;4.43;;
49416;SDS011;35290;39.550;8.786;2023-04-30T14:35:11;10.90;;;5.20;;
49416;SDS011;35290;39.550;8.786;2023-04-30T14:37:37;16.38;;;5.15;;
49416;SDS011;35290;39.550;8.786;2023-04-30T14:40:03;12.57;;;5.13;;
49416;SDS011;35290;39.550;8.786;2023-04-30T14:42:31;11.35;;;4.80;;
49416;SDS011;35290;39.550;8.786;2023-04-30T14:44:57;12.68;;;4.70;;
49416;SDS011;35290;39.550;8.786;2023-04-30T14:47:23;9.57;;;4.55;;
49416;SDS011;35290;39.550;8.786;2023-04-30T14:49:51;12.80;;;4.50;;
49416;SDS011;35290;39.550;8.786;2023-04-30T14:52:18;12.63;;;5.07;;
49416;SDS011;35290;39.550;8.786;2023-04-30T14:54:44;12.68;;;4.43;;
49416;SDS011;35290;39.550;8.786;2023-04-30T14:57:10;14.32;;;4.75;;
49416;SDS011;35290;39.550;8.786;2023-04-30T15:02:39;12.80;;;4.68;;
49416;SDS011;35290;39.550;8.786;2023-04-30T15:08:08;14.23;;;5.38;;
49416;SDS011;35290;39.550;8.786;2023-04-30T15:13:38;16.58;;;5.70;;
49416;SDS011;35290;39.550;8.786;2023-04-30T15:21:32;18.23;;;5.30;;
49416;SDS011;35290;39.550;8.786;2023-04-30T15:23:58;14.45;;;5.50;;
49416;SDS011;35290;39.550;8.786;2023-04-30T15:26:24;12.95;;;5.47;;
49416;SDS011;35290;39.550;8.786;2023-04-30T15:28:50;10.38;;;4.22;;
49416;SDS011;35290;39.550;8.786;2023-04-30T15:31:15;12.77;;;3.72;;
49416;SDS011;35290;39.550;8.786;2023-04-30T15:33:41;15.35;;;3.60;;
49416;SDS011;35290;39.550;8.786;2023-04-30T15:36:08;12.07;;;3.47;;
49416;SDS011;35290;39.550;8.786;2023-04-30T15:38:34;9.25;;;3.05;;
49416;SDS011;35290;39.550;8.786;2023-04-30T15:41:00;12.15;;;3.83;;
49416;SDS011;35290;39.550;8.786;2023-04-30T15:43:26;12.95;;;3.63;;
49416;SDS011;35290;39.550;8.786;2023-04-30T15:45:52;8.68;;;3.50;;
49416;SDS011;35290;39.550;8.786;2023-04-30T15:48:18;9.93;;;3.53;;
49416;SDS011;35290;39.550;8.786;2023-04-30T15:53:47;12.30;;;3.95;;
49416;SDS011;35290;39.550;8.786;2023-04-30T15:56:12;9.60;;;3.65;;
49416;SDS011;35290;39.550;8.786;2023-04-30T15:58:38;13.35;;;4.68;;
49416;SDS011;35290;39.550;8.786;2023-04-30T16:04:07;10.02;;;3.88;;
49416;SDS011;35290;39.550;8.786;2023-04-30T16:06:33;11.85;;;4.57;;
49416;SDS011;35290;39.550;8.786;2023-04-30T16:12:02;13.93;;;4.90;;
49416;SDS011;35290;39.550;8.786;2023-04-30T16:14:28;11.82;;;4.05;;
49416;SDS011;35290;39.550;8.786;2023-04-30T16:16:54;14.43;;;4.80;;
49416;SDS011;35290;39.550;8.786;2023-04-30T16:19:19;15.13;;;4.35;;
49416;SDS011;35290;39.550;8.786;2023-04-30T16:21:46;11.88;;;4.10;;
49416;SDS011;35290;39.550;8.786;2023-04-30T16:24:11;11.65;;;4.22;;
49416;SDS011;35290;39.550;8.786;2023-04-30T16:26:40;12.82;;;4.57;;
49416;SDS011;35290;39.550;8.786;2023-04-30T16:29:06;14.75;;;4.63;;
49416;SDS011;35290;39.550;8.786;2023-04-30T16:31:32;11.00;;;4.15;;
49416;SDS011;35290;39.550;8.786;2023-04-30T16:33:58;10.57;;;3.88;;
49416;SDS011;35290;39.550;8.786;2023-04-30T16:36:23;19.33;;;4.65;;
49416;SDS011;35290;39.550;8.786;2023-04-30T16:38:50;13.45;;;5.15;;
49416;SDS011;35290;39.550;8.786;2023-04-30T16:49:46;12.75;;;4.32;;
49416;SDS011;35290;39.550;8.786;2023-04-30T16:52:12;11.77;;;4.00;;
49416;SDS011;35290;39.550;8.786;2023-04-30T16:54:38;17.88;;;5.90;;
49416;SDS011;35290;39.550;8.786;2023-04-30T16:57:04;10.90;;;4.70;;
49416;SDS011;35290;39.550;8.786;2023-04-30T16:59:31;11.38;;;4.72;;
49416;SDS011;35290;39.550;8.786;2023-04-30T17:01:57;9.57;;;3.60;;
49416;SDS011;35290;39.550;8.786;2023-04-30T17:04:25;11.57;;;4.43;;
49416;SDS011;35290;39.550;8.786;2023-04-30T17:06:51;10.77;;;4.47;;
49416;SDS011;35290;39.550;8.786;2023-04-30T17:09:16;12.40;;;3.70;;
49416;SDS011;35290;39.550;8.786;2023-04-30T17:11:44;12.98;;;5.20;;
49416;SDS011;35290;39.550;8.786;2023-04-30T17:14:11;16.00;;;4.38;;
49416;SDS011;35290;39.550;8.786;2023-04-30T17:16:37;18.67;;;5.05;;
49416;SDS011;35290;39.550;8.786;2023-04-30T17:22:05;15.32;;;5.32;;
49416;SDS011;35290;39.550;8.786;2023-04-30T17:24:31;15.63;;;5.53;;
49416;SDS011;35290;39.550;8.786;2023-04-30T17:26:57;11.13;;;4.53;;
49416;SDS011;35290;39.550;8.786;2023-04-30T17:32:28;16.63;;;5.18;;
49416;SDS011;35290;39.550;8.786;2023-04-30T17:34:53;11.55;;;4.93;;
49416;SDS011;35290;39.550;8.786;2023-04-30T17:37:19;15.50;;;4.40;;
49416;SDS011;35290;39.550;8.786;2023-04-30T17:42:48;12.07;;;4.40;;
49416;SDS011;35290;39.550;8.786;2023-04-30T17:45:16;13.23;;;4.40;;
49416;SDS011;35290;39.550;8.786;2023-04-30T17:47:43;11.20;;;4.32;;
49416;SDS011;35290;39.550;8.786;2023-04-30T17:50:09;14.55;;;6.60;;
49416;SDS011;35290;39.550;8.786;2023-04-30T17:52:35;21.52;;;8.90;;
49416;SDS011;35290;39.550;8.786;2023-04-30T17:57:54;13.25;;;4.30;;
49416;SDS011;35290;39.550;8.786;2023-04-30T18:03:58;10.55;;;3.95;;
49416;SDS011;35290;39.550;8.786;2023-04-30T18:06:25;11.05;;;4.22;;
49416;SDS011;35290;39.550;8.786;2023-04-30T18:09:01;10.88;;;4.18;;
49416;SDS011;35290;39.550;8.786;2023-04-30T18:11:30;10.40;;;3.97;;
49416;SDS011;35290;39.550;8.786;2023-04-30T18:14:01;13.63;;;4.30;;
49416;SDS011;35290;39.550;8.786;2023-04-30T18:16:30;14.20;;;4.90;;